Time;durP1;ratioP1;P1;durP2;ratioP2;P2;SDS_P1;SDS_P2;PMS_P1;PMS_P2;Temp;Humidity;BMP_temperature;BMP_pressure;BME280_temperature;BME280_humidity;BME280_pressure;Samples;Min_cycle;Max_cycle;Signal;HPM_P1;HPM_P2
2023/12/23 00:00:34;;;;;;;1.60;0.20;;;16.80;48.50;;;;;;5113446;28;20660;-68
2023/12/23 00:03:00;;;;;;;1.25;0.25;;;16.70;48.60;;;;;;5112994;28;20051;-68
2023/12/23 00:05:26;;;;;;;1.38;0.20;;;16.70;48.70;;;;;;5113244;28;20039;-67
2023/12/23 00:07:55;;;;;;;1.38;0.50;;;16.70;48.80;;;;;;5113665;28;20054;-67
2023/12/23 00:10:20;;;;;;;1.65;0.30;;;16.60;48.80;;;;;;5113476;28;20390;-67
2023/12/23 00:12:46;;;;;;;0.90;0.20;;;16.60;48.90;;;;;;5113113;28;20039;-68
2023/12/23 00:15:11;;;;;;;1.65;0.22;;;16.60;48.90;;;;;;5113334;28;20039;-69
2023/12/23 00:17:40;;;;;;;1.15;0.20;;;16.60;49.80;;;;;;5113272;28;20506;-68
2023/12/23 00:20:07;;;;;;;1.50;0.40;;;16.60;49.10;;;;;;5113057;28;20036;-68
2023/12/23 00:22:32;;;;;;;1.92;0.25;;;16.50;49.00;;;;;;5112734;28;20482;-68
2023/12/23 00:24:58;;;;;;;1.10;0.17;;;16.50;49.10;;;;;;5112721;28;20035;-67
2023/12/23 00:27:23;;;;;;;2.08;0.20;;;16.50;49.10;;;;;;5113951;28;20030;-68
2023/12/23 00:29:49;;;;;;;1.13;0.20;;;16.50;49.20;;;;;;5113851;28;20035;-70
2023/12/23 00:32:15;;;;;;;1.80;0.20;;;16.50;49.20;;;;;;5112810;28;20137;-67
2023/12/23 00:34:40;;;;;;;1.05;0.20;;;16.50;49.30;;;;;;5113964;28;20036;-66
2023/12/23 00:37:09;;;;;;;1.30;0.20;;;16.40;49.20;;;;;;5112550;28;20482;-68
2023/12/23 00:39:35;;;;;;;1.08;0.10;;;16.40;49.20;;;;;;5112653;28;20479;-69
2023/12/23 00:42:00;;;;;;;1.05;0.25;;;16.40;50.00;;;;;;5112384;28;20039;-67
2023/12/23 00:44:26;;;;;;;1.45;0.13;;;16.40;49.30;;;;;;5112251;28;20119;-69
2023/12/23 00:46:52;;;;;;;1.52;0.32;;;16.40;49.40;;;;;;5111740;28;20048;-69
2023/12/23 00:49:18;;;;;;;1.25;0.45;;;16.40;49.40;;;;;;5112490;28;20443;-69
2023/12/23 00:51:44;;;;;;;1.42;0.10;;;16.30;49.40;;;;;;5113646;28;20037;-67
2023/12/23 00:54:09;;;;;;;1.15;0.40;;;16.30;49.40;;;;;;5112178;28;20436;-68
2023/12/23 00:56:35;;;;;;;1.30;0.22;;;16.30;49.50;;;;;;5113393;28;20038;-67
2023/12/23 00:59:03;;;;;;;1.63;0.30;;;16.30;49.50;;;;;;5113828;28;20082;-68
2023/12/23 01:01:29;;;;;;;1.30;0.20;;;16.30;49.50;;;;;;5111551;28;20083;-70
2023/12/23 01:03:54;;;;;;;1.17;0.20;;;16.30;49.50;;;;;;5113482;28;20081;-67
2023/12/23 01:06:20;;;;;;;1.85;0.20;;;16.30;49.50;;;;;;5111819;28;20470;-68
2023/12/23 01:08:46;;;;;;;0.77;0.20;;;16.30;49.60;;;;;;5113393;28;20032;-68
2023/12/23 01:11:11;;;;;;;1.35;0.20;;;16.30;49.70;;;;;;5113204;28;20040;-68
2023/12/23 01:13:37;;;;;;;2.08;0.20;;;16.30;49.60;;;;;;5113097;28;20086;-68
2023/12/23 01:16:03;;;;;;;1.05;0.17;;;16.30;49.70;;;;;;5111974;28;20474;-68
2023/12/23 01:18:29;;;;;;;2.35;0.20;;;16.20;49.60;;;;;;5111859;28;20044;-69
2023/12/23 01:20:54;;;;;;;1.83;0.30;;;16.20;49.60;;;;;;5112797;28;20036;-68
2023/12/23 01:23:20;;;;;;;1.33;0.20;;;16.20;49.70;;;;;;5111667;28;20051;-68
2023/12/23 01:25:46;;;;;;;3.20;0.40;;;16.20;49.70;;;;;;5111844;28;20128;-68
2023/12/23 01:28:11;;;;;;;1.90;0.30;;;16.20;49.70;;;;;;5111514;28;20573;-68
2023/12/23 01:30:37;;;;;;;0.55;0.10;;;16.20;49.80;;;;;;5111540;28;20058;-68
2023/12/23 01:33:03;;;;;;;1.33;0.20;;;16.20;49.80;;;;;;5111499;28;20371;-68
2023/12/23 01:35:28;;;;;;;0.85;0.15;;;16.20;49.80;;;;;;5112995;28;20054;-68
2023/12/23 01:37:54;;;;;;;4.22;0.30;;;16.20;49.80;;;;;;5111594;28;20051;-67
2023/12/23 01:40:20;;;;;;;1.33;0.20;;;16.20;49.80;;;;;;5111373;28;20036;-69
2023/12/23 01:42:46;;;;;;;3.17;0.32;;;16.10;49.80;;;;;;5111403;28;20043;-68
2023/12/23 01:45:11;;;;;;;1.73;0.15;;;16.10;49.70;;;;;;5111353;28;20039;-67
2023/12/23 01:47:41;;;;;;;1.30;0.10;;;16.10;49.80;;;;;;5111504;28;20086;-68
2023/12/23 01:50:09;;;;;;;1.52;0.10;;;16.10;49.80;;;;;;5111298;28;20035;-69
2023/12/23 01:52:36;;;;;;;1.88;0.20;;;16.10;49.80;;;;;;5111394;28;20490;-68
2023/12/23 01:55:03;;;;;;;0.75;0.20;;;16.10;49.80;;;;;;5111437;28;20044;-68
2023/12/23 01:57:35;;;;;;;1.05;0.10;;;16.10;49.80;;;;;;5110945;28;20047;-68
2023/12/23 02:00:01;;;;;;;1.95;0.32;;;16.20;50.00;;;;;;5111441;28;20039;-68
2023/12/23 02:02:28;;;;;;;1.23;0.20;;;16.10;49.90;;;;;;5111933;28;20513;-69
2023/12/23 02:04:56;;;;;;;1.45;0.20;;;16.10;49.90;;;;;;5112544;28;20045;-68
2023/12/23 02:07:22;;;;;;;2.50;0.30;;;16.10;49.90;;;;;;5110961;28;20032;-69
2023/12/23 02:09:48;;;;;;;1.50;0.30;;;16.00;49.90;;;;;;5111361;28;20041;-68
2023/12/23 02:12:24;;;;;;;0.75;0.20;;;16.00;49.90;;;;;;5112319;28;20131;-69
2023/12/23 02:15:04;;;;;;;2.75;0.25;;;16.10;50.00;;;;;;5112321;28;20119;-69
2023/12/23 02:17:30;;;;;;;1.65;0.20;;;16.00;49.90;;;;;;5111175;28;20542;-69
2023/12/23 02:19:57;;;;;;;1.40;0.20;;;16.00;49.90;;;;;;5112400;28;20039;-68
2023/12/23 02:22:22;;;;;;;0.98;0.10;;;16.00;49.90;;;;;;5112218;28;20514;-68
2023/12/23 02:24:48;;;;;;;1.58;0.20;;;16.00;50.00;;;;;;5111220;28;20036;-69
2023/12/23 02:27:17;;;;;;;1.42;0.20;;;16.00;50.00;;;;;;5111147;28;20356;-69
2023/12/23 02:29:45;;;;;;;1.23;0.20;;;16.00;50.10;;;;;;5111975;28;20141;-68
2023/12/23 02:32:12;;;;;;;1.85;0.38;;;16.00;50.00;;;;;;5111116;28;20371;-66
2023/12/23 02:34:41;;;;;;;1.38;0.30;;;16.00;50.10;;;;;;5112269;28;20601;-68
2023/12/23 02:37:07;;;;;;;0.80;0.10;;;16.00;50.20;;;;;;5112241;28;20100;-66
2023/12/23 02:39:32;;;;;;;1.27;0.10;;;16.00;50.10;;;;;;5110912;28;20055;-68
2023/12/23 02:41:58;;;;;;;0.82;0.10;;;15.90;50.10;;;;;;5110753;28;20083;-67
2023/12/23 02:44:24;;;;;;;1.17;0.30;;;16.00;50.10;;;;;;5111940;28;20039;-68
2023/12/23 02:46:49;;;;;;;0.98;0.10;;;16.00;50.10;;;;;;5112018;28;20421;-68
2023/12/23 02:49:15;;;;;;;0.70;0.13;;;15.90;50.10;;;;;;5110536;28;20463;-68
2023/12/23 02:51:41;;;;;;;1.33;0.30;;;15.90;50.20;;;;;;5110830;28;20072;-68
2023/12/23 02:54:09;;;;;;;0.90;0.15;;;15.90;50.20;;;;;;5111908;28;20509;-68
2023/12/23 02:56:35;;;;;;;1.25;0.20;;;15.90;50.20;;;;;;5110812;28;20070;-68
2023/12/23 02:59:00;;;;;;;0.88;0.10;;;15.90;50.20;;;;;;5110788;28;20047;-68
2023/12/23 03:01:26;;;;;;;0.68;0.20;;;15.90;50.30;;;;;;5111433;28;20052;-67
2023/12/23 03:03:52;;;;;;;1.42;0.15;;;15.90;50.30;;;;;;5111688;28;20071;-68
2023/12/23 03:06:17;;;;;;;1.02;0.20;;;15.90;50.40;;;;;;5110890;28;20053;-68
2023/12/23 03:08:43;;;;;;;0.52;0.20;;;15.90;50.40;;;;;;5112345;28;20106;-68
2023/12/23 03:11:09;;;;;;;0.93;0.17;;;15.90;50.40;;;;;;5115454;28;20466;-68
2023/12/23 03:13:34;;;;;;;1.63;0.22;;;15.90;50.40;;;;;;5114360;28;20588;-68
2023/12/23 03:16:00;;;;;;;1.08;0.10;;;15.80;50.40;;;;;;5115421;28;20080;-68
2023/12/23 03:18:26;;;;;;;1.42;0.20;;;15.80;50.50;;;;;;5114274;28;20387;-68
2023/12/23 03:20:51;;;;;;;1.55;0.20;;;15.80;50.50;;;;;;5115226;28;20032;-69
2023/12/23 03:23:23;;;;;;;1.15;0.20;;;15.80;50.50;;;;;;5113949;28;20539;-68
2023/12/23 03:25:49;;;;;;;1.08;0.10;;;15.80;50.50;;;;;;5113808;28;20056;-68
2023/12/23 03:28:15;;;;;;;1.65;0.20;;;15.80;50.50;;;;;;5115154;28;20117;-69
2023/12/23 03:30:40;;;;;;;1.60;0.20;;;15.80;50.50;;;;;;5113702;28;20036;-68
2023/12/23 03:33:06;;;;;;;1.67;0.20;;;15.80;50.50;;;;;;5115662;28;20131;-68
2023/12/23 03:35:37;;;;;;;0.50;0.10;;;15.80;50.60;;;;;;5113958;28;20054;-69
2023/12/23 03:38:03;;;;;;;0.70;0.10;;;15.80;50.60;;;;;;5113945;28;20044;-68
2023/12/23 03:40:28;;;;;;;1.05;0.10;;;15.80;50.70;;;;;;5113581;28;20441;-69
2023/12/23 03:42:54;;;;;;;0.82;0.20;;;15.80;50.70;;;;;;5114860;28;20035;-69
2023/12/23 03:45:19;;;;;;;0.65;0.20;;;15.80;50.70;;;;;;5113449;28;20482;-68
2023/12/23 03:47:45;;;;;;;0.98;0.13;;;15.70;50.70;;;;;;5113590;28;20035;-69
2023/12/23 03:50:11;;;;;;;0.73;0.10;;;15.70;50.70;;;;;;5113727;28;20035;-67
2023/12/23 03:52:37;;;;;;;1.05;0.20;;;15.80;50.80;;;;;;5114630;28;20440;-69
2023/12/23 03:55:03;;;;;;;0.77;0.17;;;15.70;50.80;;;;;;5114639;28;20441;-67
2023/12/23 03:57:28;;;;;;;1.20;0.20;;;15.70;50.80;;;;;;5113599;28;20104;-68
2023/12/23 03:59:54;;;;;;;1.02;0.20;;;15.70;50.80;;;;;;5113558;28;20383;-68
2023/12/23 04:02:19;;;;;;;0.65;0.10;;;15.70;50.80;;;;;;5112795;28;20075;-68
2023/12/23 04:04:45;;;;;;;1.67;0.13;;;15.70;50.80;;;;;;5113317;28;20039;-68
2023/12/23 04:07:12;;;;;;;0.98;0.10;;;15.70;50.90;;;;;;5114516;28;20053;-68
2023/12/23 04:09:37;;;;;;;1.25;0.40;;;15.70;50.90;;;;;;5113582;28;20052;-67
2023/12/23 04:12:03;;;;;;;2.50;0.10;;;15.70;51.00;;;;;;5114301;28;20039;-68
2023/12/23 04:14:32;;;;;;;1.02;0.10;;;15.70;51.00;;;;;;5112880;28;20067;-68
2023/12/23 04:16:58;;;;;;;0.25;0.10;;;15.70;51.00;;;;;;5113089;28;20108;-68
2023/12/23 04:19:26;;;;;;;1.13;0.10;;;15.70;51.00;;;;;;5112924;28;20518;-68
2023/12/23 04:21:52;;;;;;;0.80;0.20;;;15.70;51.00;;;;;;5112725;28;20044;-68
2023/12/23 04:24:19;;;;;;;0.40;0.10;;;15.70;51.00;;;;;;5114097;28;20048;-68
2023/12/23 04:26:45;;;;;;;0.40;0.10;;;15.70;51.10;;;;;;5112732;28;20467;-68
2023/12/23 04:29:11;;;;;;;0.65;0.10;;;15.70;51.10;;;;;;5113185;28;20048;-68
2023/12/23 04:31:37;;;;;;;1.58;0.20;;;15.60;51.10;;;;;;5112571;28;20050;-67
2023/12/23 04:34:03;;;;;;;0.88;0.20;;;15.60;51.10;;;;;;5113917;28;20035;-68
2023/12/23 04:36:28;;;;;;;1.17;0.10;;;15.60;51.10;;;;;;5114007;28;20043;-68
2023/12/23 04:38:54;;;;;;;0.73;0.20;;;15.60;51.10;;;;;;5114335;28;20036;-68
2023/12/23 04:41:20;;;;;;;0.50;0.10;;;15.60;51.10;;;;;;5112376;28;20131;-68
2023/12/23 04:43:45;;;;;;;0.90;0.10;;;15.60;51.10;;;;;;5112356;28;20050;-67
2023/12/23 04:46:11;;;;;;;1.23;0.10;;;15.60;51.20;;;;;;5113640;28;20046;-68
2023/12/23 04:48:37;;;;;;;0.47;0.08;;;15.60;51.20;;;;;;5113416;28;20034;-68
2023/12/23 04:51:02;;;;;;;0.65;0.10;;;15.60;51.20;;;;;;5112264;28;20109;-68
2023/12/23 04:53:31;;;;;;;1.23;0.10;;;15.60;51.20;;;;;;5112318;28;20088;-68
2023/12/23 04:55:56;;;;;;;0.73;0.10;;;15.60;51.20;;;;;;5112192;28;20035;-68
2023/12/23 04:58:22;;;;;;;0.50;0.10;;;15.60;51.30;;;;;;5112047;28;20081;-68
2023/12/23 05:00:48;;;;;;;0.35;0.10;;;15.60;51.30;;;;;;5111802;28;20043;-68
2023/12/23 05:03:13;;;;;;;1.15;0.30;;;15.60;51.40;;;;;;5111891;28;20130;-68
2023/12/23 05:05:41;;;;;;;1.55;0.20;;;15.50;51.30;;;;;;5112133;28;20072;-67
2023/12/23 05:08:09;;;;;;;0.43;0.10;;;15.50;51.30;;;;;;5111940;28;20498;-68
2023/12/23 05:10:35;;;;;;;0.60;0.10;;;15.60;51.40;;;;;;5112233;28;20071;-68
2023/12/23 05:13:03;;;;;;;1.48;0.20;;;15.60;51.40;;;;;;5111985;28;20047;-68
2023/12/23 05:15:29;;;;;;;1.50;0.10;;;15.60;51.50;;;;;;5111792;28;20062;-69
2023/12/23 05:17:54;;;;;;;0.50;0.10;;;15.50;51.40;;;;;;5111717;28;20043;-69
2023/12/23 05:20:20;;;;;;;0.85;0.10;;;15.60;51.50;;;;;;5111643;28;20047;-68
2023/12/23 05:22:46;;;;;;;1.10;0.13;;;15.50;51.40;;;;;;5111579;28;20042;-67
2023/12/23 05:25:11;;;;;;;0.35;0.10;;;15.50;51.50;;;;;;5111653;28;20300;-68
2023/12/23 05:27:37;;;;;;;0.20;0.10;;;15.50;51.60;;;;;;5111595;28;20043;-68
2023/12/23 05:30:03;;;;;;;0.43;0.00;;;15.50;51.50;;;;;;5111694;28;20380;-68
2023/12/23 05:32:29;;;;;;;0.15;0.00;;;15.50;51.60;;;;;;5112274;28;20053;-68
2023/12/23 05:34:54;;;;;;;0.68;0.10;;;15.50;51.60;;;;;;5112953;28;20032;-68
2023/12/23 05:37:20;;;;;;;0.95;0.20;;;15.50;51.70;;;;;;5111500;28;20702;-68
2023/12/23 05:39:48;;;;;;;0.30;0.00;;;15.50;51.80;;;;;;5113035;28;20036;-68
2023/12/23 05:42:14;;;;;;;0.82;0.10;;;15.50;51.80;;;;;;5111306;28;20490;-68
2023/12/23 05:44:40;;;;;;;0.60;0.10;;;15.50;51.90;;;;;;5111552;28;20063;-67
2023/12/23 05:47:06;;;;;;;0.73;0.13;;;15.50;52.00;;;;;;5111215;28;20552;-68
2023/12/23 05:49:31;;;;;;;0.60;0.10;;;15.50;52.00;;;;;;5111396;28;20398;-68
2023/12/23 05:52:00;;;;;;;0.93;0.20;;;15.50;52.10;;;;;;5112467;28;20047;-68
2023/12/23 05:54:25;;;;;;;2.60;0.30;;;15.50;52.10;;;;;;5112358;28;20154;-69
2023/12/23 05:56:51;;;;;;;0.77;0.10;;;15.50;52.10;;;;;;5112454;28;20075;-68
2023/12/23 05:59:17;;;;;;;0.50;0.10;;;15.50;52.20;;;;;;5111281;28;20044;-68
2023/12/23 06:01:45;;;;;;;0.50;0.10;;;15.40;52.10;;;;;;5110863;28;20047;-68
2023/12/23 06:04:11;;;;;;;0.88;0.10;;;15.40;52.20;;;;;;5112256;28;20048;-69
2023/12/23 06:06:39;;;;;;;0.60;0.10;;;15.40;52.30;;;;;;5111401;28;20050;-68
2023/12/23 06:09:05;;;;;;;0.95;0.28;;;15.40;52.30;;;;;;5111476;28;20039;-68
2023/12/23 06:11:30;;;;;;;2.40;0.20;;;15.50;52.40;;;;;;5111126;28;20360;-68
2023/12/23 06:13:56;;;;;;;0.50;0.20;;;15.40;52.40;;;;;;5111438;28;20480;-68
2023/12/23 06:16:25;;;;;;;1.35;0.15;;;15.40;52.40;;;;;;5110899;28;20478;-68
2023/12/23 06:18:50;;;;;;;0.63;0.20;;;15.40;52.50;;;;;;5110901;28;20043;-68
2023/12/23 06:21:16;;;;;;;0.57;0.10;;;15.40;52.60;;;;;;5112122;28;20027;-68
2023/12/23 06:23:42;;;;;;;1.98;0.20;;;15.40;52.60;;;;;;5110894;28;20478;-68
2023/12/23 06:26:10;;;;;;;1.98;0.30;;;15.50;52.70;;;;;;5111130;28;20062;-68
2023/12/23 06:28:36;;;;;;;0.50;0.10;;;15.50;52.70;;;;;;5110884;28;20084;-68
2023/12/23 06:31:02;;;;;;;0.73;0.10;;;15.40;52.70;;;;;;5093856;28;20039;-67
2023/12/23 06:33:27;;;;;;;0.70;0.10;;;15.40;52.70;;;;;;5111996;28;20036;-68
2023/12/23 06:35:56;;;;;;;1.40;0.20;;;15.40;52.70;;;;;;5112189;28;20042;-68
2023/12/23 06:38:21;;;;;;;1.95;0.40;;;15.40;52.80;;;;;;5112144;28;20118;-68
2023/12/23 06:40:47;;;;;;;0.50;0.10;;;15.40;52.90;;;;;;5112144;28;20067;-68
2023/12/23 06:43:15;;;;;;;0.43;0.10;;;15.40;52.90;;;;;;5110603;28;20112;-68
2023/12/23 06:45:41;;;;;;;1.52;0.10;;;15.40;52.90;;;;;;5114515;28;20131;-68
2023/12/23 06:48:07;;;;;;;1.75;0.28;;;15.40;53.00;;;;;;5114575;28;20481;-68
2023/12/23 06:50:32;;;;;;;1.60;0.17;;;15.40;52.90;;;;;;5114542;28;20281;-68
2023/12/23 06:52:58;;;;;;;0.77;0.10;;;15.40;52.90;;;;;;5114815;28;20127;-68
2023/12/23 06:55:23;;;;;;;1.05;0.20;;;15.40;53.00;;;;;;5114514;28;20066;-68
2023/12/23 06:57:52;;;;;;;1.08;0.20;;;15.40;53.00;;;;;;5115898;28;20074;-67
2023/12/23 07:00:18;;;;;;;2.03;0.15;;;15.40;53.10;;;;;;5114478;28;20047;-68
2023/12/23 07:02:44;;;;;;;1.08;0.20;;;15.40;53.00;;;;;;5115275;28;20047;-67
2023/12/23 07:05:10;;;;;;;1.38;0.40;;;15.40;53.10;;;;;;5114418;28;20046;-67
2023/12/23 07:07:35;;;;;;;0.95;0.20;;;15.40;53.90;;;;;;5115527;28;20028;-68
2023/12/23 07:10:01;;;;;;;1.63;0.32;;;15.40;53.20;;;;;;5115532;28;20039;-68
2023/12/23 07:12:26;;;;;;;1.77;0.20;;;15.40;53.20;;;;;;5114157;28;20126;-68
2023/12/23 07:14:52;;;;;;;1.25;0.10;;;15.40;53.20;;;;;;5114108;28;20125;-68
2023/12/23 07:17:18;;;;;;;0.98;0.20;;;15.40;53.20;;;;;;5114082;28;20062;-69
2023/12/23 07:19:44;;;;;;;1.48;0.20;;;15.40;53.20;;;;;;5114185;28;20080;-67
2023/12/23 07:22:09;;;;;;;1.20;0.25;;;15.40;53.30;;;;;;5113878;28;20039;-68
2023/12/23 07:24:37;;;;;;;0.90;0.17;;;15.40;53.40;;;;;;5115355;28;20036;-67
2023/12/23 07:27:04;;;;;;;2.17;0.30;;;15.40;53.40;;;;;;5115185;28;20039;-70
2023/12/23 07:29:32;;;;;;;2.38;0.15;;;15.40;53.50;;;;;;5113832;28;20040;-71
2023/12/23 07:31:58;;;;;;;3.33;0.20;;;15.40;53.50;;;;;;5114000;28;20035;-69
2023/12/23 07:34:24;;;;;;;1.13;0.10;;;15.40;53.50;;;;;;5113911;28;20047;-70
2023/12/23 07:36:49;;;;;;;2.67;0.30;;;15.40;53.60;;;;;;5096811;28;20505;-69
2023/12/23 07:39:15;;;;;;;0.95;0.15;;;15.40;53.50;;;;;;5113657;28;20040;-70
2023/12/23 07:41:41;;;;;;;1.27;0.20;;;15.40;53.60;;;;;;5096919;28;20047;-69
2023/12/23 07:44:07;;;;;;;1.35;0.10;;;15.40;53.70;;;;;;5114833;28;20043;-69
2023/12/23 07:46:32;;;;;;;1.50;0.20;;;15.40;53.70;;;;;;5113585;28;20471;-70
2023/12/23 07:48:58;;;;;;;2.58;0.30;;;15.30;53.60;;;;;;5113665;28;20160;-69
2023/12/23 07:51:24;;;;;;;0.85;0.10;;;15.40;53.80;;;;;;5113456;28;20431;-70
2023/12/23 07:53:49;;;;;;;3.00;0.20;;;15.40;53.80;;;;;;5114583;28;20035;-69
2023/12/23 07:56:15;;;;;;;1.77;0.47;;;15.40;53.90;;;;;;5113365;28;20382;-70
2023/12/23 07:58:41;;;;;;;1.10;0.20;;;15.30;53.80;;;;;;5113535;28;20043;-69
2023/12/23 08:01:08;;;;;;;2.78;0.43;;;15.30;53.80;;;;;;5113186;28;20042;-69
2023/12/23 08:03:34;;;;;;;3.42;0.30;;;15.40;53.90;;;;;;5113190;28;20039;-69
2023/12/23 08:05:59;;;;;;;1.70;0.40;;;15.40;53.90;;;;;;5113260;28;20100;-70
2023/12/23 08:08:25;;;;;;;1.80;0.20;;;15.40;54.00;;;;;;5096129;28;20464;-70
2023/12/23 08:10:52;;;;;;;1.35;0.20;;;15.30;53.90;;;;;;5113061;28;20042;-69
2023/12/23 08:13:18;;;;;;;1.65;0.20;;;15.30;53.90;;;;;;5114350;28;20035;-70
2023/12/23 08:15:44;;;;;;;3.53;0.20;;;15.30;54.00;;;;;;5113194;28;20549;-70
2023/12/23 08:18:09;;;;;;;1.42;0.20;;;15.30;54.00;;;;;;5114233;28;20035;-71
2023/12/23 08:20:35;;;;;;;1.80;0.22;;;15.30;54.10;;;;;;5114021;28;20101;-71
2023/12/23 08:23:03;;;;;;;3.95;0.40;;;15.30;54.20;;;;;;5112834;28;20100;-70
2023/12/23 08:25:29;;;;;;;3.13;0.57;;;15.30;54.20;;;;;;5112952;28;20131;-70
2023/12/23 08:27:55;;;;;;;3.28;0.60;;;15.30;54.20;;;;;;5114166;28;20111;-70
2023/12/23 08:30:21;;;;;;;1.40;0.30;;;15.30;54.20;;;;;;5112640;28;20115;-70
2023/12/23 08:32:46;;;;;;;1.15;0.20;;;15.30;54.20;;;;;;5114066;28;20032;-70
2023/12/23 08:35:12;;;;;;;2.50;0.20;;;15.30;54.20;;;;;;5112513;28;20047;-67
2023/12/23 08:37:38;;;;;;;1.08;0.20;;;15.30;54.30;;;;;;5113806;28;20036;-66
2023/12/23 08:40:04;;;;;;;2.13;0.40;;;15.30;54.30;;;;;;5112944;28;20498;-67
2023/12/23 08:42:30;;;;;;;1.42;0.30;;;15.30;54.30;;;;;;5112436;28;20046;-67
2023/12/23 08:44:56;;;;;;;1.83;0.28;;;15.30;54.30;;;;;;5112678;28;20043;-68
2023/12/23 08:47:21;;;;;;;2.13;0.32;;;15.30;54.40;;;;;;5113609;28;20502;-68
2023/12/23 08:49:47;;;;;;;3.30;0.38;;;15.30;54.40;;;;;;5113101;28;20546;-67
2023/12/23 08:52:12;;;;;;;2.53;0.40;;;15.30;54.50;;;;;;5112481;28;20449;-68
2023/12/23 08:54:38;;;;;;;2.30;0.40;;;15.30;54.40;;;;;;5112258;28;20093;-67
2023/12/23 08:57:04;;;;;;;2.53;0.30;;;15.30;54.50;;;;;;5113376;28;20050;-67
2023/12/23 08:59:29;;;;;;;1.25;0.30;;;15.30;54.60;;;;;;5112431;28;20066;-69
2023/12/23 09:01:55;;;;;;;2.45;0.20;;;15.30;54.50;;;;;;5113502;28;20116;-69
2023/12/23 09:04:20;;;;;;;1.92;0.40;;;15.30;54.50;;;;;;5113321;28;20387;-67
2023/12/23 09:06:46;;;;;;;1.85;0.40;;;15.30;54.60;;;;;;5112367;28;20071;-68
2023/12/23 09:09:12;;;;;;;3.40;0.22;;;15.30;54.60;;;;;;5111943;28;20039;-68
2023/12/23 09:11:45;;;;;;;2.15;0.20;;;15.30;54.60;;;;;;5112190;28;20047;-67
2023/12/23 09:14:11;;;;;;;2.80;0.32;;;15.20;54.50;;;;;;5112076;28;20039;-68
2023/12/23 09:16:37;;;;;;;1.77;0.30;;;15.30;54.70;;;;;;5113043;28;20039;-68
2023/12/23 09:19:03;;;;;;;3.15;0.50;;;15.30;54.70;;;;;;5112988;28;20470;-68
2023/12/23 09:21:29;;;;;;;3.40;0.60;;;15.30;54.70;;;;;;5111547;28;20052;-67
2023/12/23 09:23:54;;;;;;;4.43;0.68;;;15.30;54.70;;;;;;5113020;28;20050;-67
2023/12/23 09:26:20;;;;;;;1.10;0.20;;;15.30;54.80;;;;;;5111855;28;20035;-67
2023/12/23 09:28:46;;;;;;;3.03;0.50;;;15.30;54.80;;;;;;5111986;28;20471;-67
2023/12/23 09:31:12;;;;;;;1.60;0.30;;;15.30;54.80;;;;;;5111590;28;20044;-68
2023/12/23 09:33:39;;;;;;;2.05;0.30;;;15.30;54.80;;;;;;5111734;28;20039;-67
2023/12/23 09:36:05;;;;;;;2.03;0.40;;;15.20;54.80;;;;;;5094773;28;20043;-67
2023/12/23 09:38:31;;;;;;;1.63;0.43;;;15.30;54.90;;;;;;5111354;28;20043;-67
2023/12/23 09:40:57;;;;;;;2.58;0.20;;;15.30;54.90;;;;;;5111467;28;20040;-68
2023/12/23 09:43:23;;;;;;;1.75;0.25;;;15.30;54.90;;;;;;5110554;28;20305;-68
2023/12/23 09:45:52;;;;;;;1.77;0.20;;;15.20;54.80;;;;;;5111793;28;20424;-68
2023/12/23 09:48:18;;;;;;;2.47;0.43;;;15.30;54.90;;;;;;5111300;28;20108;-69
2023/12/23 09:50:45;;;;;;;2.55;0.32;;;15.20;54.80;;;;;;5112424;28;20039;-69
2023/12/23 09:53:13;;;;;;;1.85;0.30;;;15.20;54.90;;;;;;5112502;28;20447;-67
2023/12/23 09:55:40;;;;;;;2.65;0.30;;;15.30;55.00;;;;;;5111492;28;20093;-68
2023/12/23 09:58:06;;;;;;;2.83;0.35;;;15.30;55.00;;;;;;5112542;28;20422;-66
2023/12/23 10:00:32;;;;;;;4.07;0.82;;;15.20;54.90;;;;;;5110912;28;20122;-68
2023/12/23 10:03:00;;;;;;;3.63;0.70;;;15.20;54.90;;;;;;5112159;28;20403;-67
2023/12/23 10:05:27;;;;;;;2.65;0.30;;;15.20;54.90;;;;;;5111165;28;20040;-67
2023/12/23 10:07:57;;;;;;;2.15;0.30;;;15.20;54.90;;;;;;5111044;28;20039;-68
2023/12/23 10:10:24;;;;;;;4.22;0.93;;;15.20;55.00;;;;;;5111240;28;20028;-68
2023/12/23 10:12:49;;;;;;;3.40;0.40;;;15.20;55.00;;;;;;5111333;28;20043;-67
2023/12/23 10:15:15;;;;;;;2.83;0.43;;;15.20;55.00;;;;;;5111218;28;20524;-68
2023/12/23 10:17:41;;;;;;;2.75;0.45;;;15.20;55.00;;;;;;5111756;28;20368;-67
2023/12/23 10:20:10;;;;;;;1.90;0.32;;;15.20;55.00;;;;;;5116379;28;20109;-69
2023/12/23 10:22:36;;;;;;;2.15;0.65;;;15.20;55.00;;;;;;5115229;28;20066;-68
2023/12/23 10:25:01;;;;;;;1.95;0.77;;;15.20;55.10;;;;;;5116524;28;20470;-67
2023/12/23 10:27:33;;;;;;;2.05;0.35;;;15.30;55.20;;;;;;5115327;28;20063;-68
2023/12/23 10:30:07;;;;;;;2.65;0.35;;;15.20;55.20;;;;;;5115228;28;20074;-68
2023/12/23 10:32:37;;;;;;;1.70;0.47;;;15.30;55.20;;;;;;5115256;28;20160;-67
2023/12/23 10:35:05;;;;;;;2.10;0.80;;;15.20;55.10;;;;;;5114771;28;20493;-68
2023/12/23 10:37:33;;;;;;;2.13;0.50;;;15.20;55.20;;;;;;5114912;28;20054;-69
2023/12/23 10:40:20;;;;;;;1.95;0.30;;;15.20;55.10;;;;;;5114745;28;20044;-67
2023/12/23 10:42:48;;;;;;;2.50;0.30;;;15.20;55.10;;;;;;5114674;28;20097;-67
2023/12/23 10:45:15;;;;;;;1.38;0.38;;;15.20;55.20;;;;;;5114994;28;20043;-68
2023/12/23 10:47:42;;;;;;;4.32;0.32;;;15.20;55.20;;;;;;5114718;28;20063;-69
2023/12/23 10:50:09;;;;;;;3.28;0.50;;;15.20;55.20;;;;;;5115103;28;20036;-67
2023/12/23 10:52:36;;;;;;;2.20;0.35;;;15.20;55.20;;;;;;5114882;28;20068;-67
2023/12/23 10:55:03;;;;;;;4.93;0.50;;;15.20;55.30;;;;;;5114807;28;20161;-68
2023/12/23 10:57:30;;;;;;;1.92;0.30;;;15.20;55.20;;;;;;5114845;28;20043;-67
2023/12/23 10:59:57;;;;;;;2.35;0.50;;;15.20;55.20;;;;;;5114706;28;20054;-68
2023/12/23 11:02:28;;;;;;;2.38;0.30;;;15.20;55.30;;;;;;5114041;28;20062;-68
2023/12/23 11:04:56;;;;;;;2.97;0.47;;;15.20;55.30;;;;;;5114478;28;20089;-68
2023/12/23 11:07:25;;;;;;;1.80;0.50;;;15.20;55.30;;;;;;5115737;28;20032;-68
2023/12/23 11:09:52;;;;;;;2.20;0.47;;;15.20;55.30;;;;;;5114229;28;20073;-68
2023/12/23 11:12:18;;;;;;;3.03;0.63;;;15.20;55.30;;;;;;5114267;28;20062;-67
2023/12/23 11:14:47;;;;;;;2.92;0.65;;;15.20;55.30;;;;;;5114400;28;20047;-69
2023/12/23 11:17:30;;;;;;;3.05;0.50;;;15.20;55.40;;;;;;5114237;28;20043;-68
2023/12/23 11:19:59;;;;;;;2.38;0.30;;;15.20;55.30;;;;;;5114314;28;20057;-68
2023/12/23 11:22:29;;;;;;;2.05;0.40;;;15.20;56.10;;;;;;5115330;28;20387;-68
2023/12/23 11:24:56;;;;;;;3.38;0.40;;;15.20;55.30;;;;;;5115831;27;20074;-67
2023/12/23 11:30:08;;;;;;;3.47;0.40;;;15.20;55.40;;;;;;5089490;27;20374;-70
2023/12/23 11:32:37;;;;;;;2.90;0.70;;;15.20;55.50;;;;;;5089359;28;20044;-67
2023/12/23 11:35:04;;;;;;;3.67;0.30;;;15.10;55.40;;;;;;5088078;28;20040;-66
2023/12/23 11:37:54;;;;;;;2.15;0.40;;;15.10;55.40;;;;;;5088190;28;20071;-68
2023/12/23 11:40:20;;;;;;;2.15;0.40;;;15.20;55.40;;;;;;5088176;28;20080;-68
2023/12/23 11:42:49;;;;;;;2.42;0.50;;;15.10;55.40;;;;;;5087902;28;20115;-68
2023/12/23 11:45:15;;;;;;;2.63;0.30;;;15.10;55.50;;;;;;5089289;28;20043;-68
2023/12/23 11:47:42;;;;;;;1.73;0.30;;;15.20;55.50;;;;;;5087809;28;20079;-67
2023/12/23 11:50:08;;;;;;;3.72;0.63;;;15.10;55.50;;;;;;5088247;28;20126;-69
2023/12/23 11:52:35;;;;;;;1.80;0.30;;;15.20;55.50;;;;;;5088903;28;20040;-67
2023/12/23 11:55:02;;;;;;;2.03;0.25;;;15.20;56.30;;;;;;5087781;28;20071;-68
2023/12/23 11:57:28;;;;;;;2.95;0.40;;;15.10;55.50;;;;;;5088883;28;20032;-69
2023/12/23 11:59:55;;;;;;;2.47;0.35;;;15.10;55.60;;;;;;5087640;28;20106;-67
2023/12/23 12:02:21;;;;;;;1.92;0.30;;;15.10;55.50;;;;;;5088806;28;20045;-67
2023/12/23 12:04:47;;;;;;;1.67;0.30;;;15.10;55.60;;;;;;5087755;28;20293;-69
2023/12/23 12:07:12;;;;;;;3.47;0.45;;;15.10;55.60;;;;;;5087396;28;20083;-68
2023/12/23 12:09:38;;;;;;;3.08;0.43;;;15.10;55.60;;;;;;5087422;28;20113;-67
2023/12/23 12:12:04;;;;;;;2.22;0.30;;;15.10;55.60;;;;;;5087847;28;20032;-68
2023/12/23 12:14:31;;;;;;;3.72;0.35;;;15.10;55.60;;;;;;5087373;28;20125;-67
2023/12/23 12:16:56;;;;;;;2.47;0.40;;;15.10;55.60;;;;;;5087545;28;20044;-69
2023/12/23 12:19:22;;;;;;;2.92;0.68;;;15.10;55.60;;;;;;5087670;28;20040;-69
2023/12/23 12:21:48;;;;;;;3.58;1.02;;;15.10;55.60;;;;;;5088588;28;20038;-67
2023/12/23 12:24:14;;;;;;;3.55;0.77;;;15.10;55.60;;;;;;5087301;28;20479;-68
2023/12/23 12:26:41;;;;;;;1.85;0.40;;;15.10;55.70;;;;;;5070403;28;20085;-67
2023/12/23 12:29:07;;;;;;;2.50;0.47;;;15.10;55.70;;;;;;5086775;28;20119;-67
2023/12/23 12:31:33;;;;;;;2.47;0.68;;;15.10;55.70;;;;;;5087021;28;20124;-69
2023/12/23 12:33:58;;;;;;;2.20;0.90;;;15.10;55.60;;;;;;5088251;28;20040;-69
2023/12/23 12:36:27;;;;;;;3.45;0.30;;;15.10;55.60;;;;;;5087038;28;20047;-67
2023/12/23 12:38:53;;;;;;;2.33;0.20;;;15.10;55.70;;;;;;5087133;28;20098;-68
2023/12/23 12:41:19;;;;;;;2.72;0.40;;;15.10;55.60;;;;;;5074282;28;20040;-68
2023/12/23 12:43:44;;;;;;;1.95;0.22;;;15.10;55.70;;;;;;5074937;28;20037;-68
2023/12/23 12:46:15;;;;;;;4.20;0.40;;;15.10;55.60;;;;;;5074593;28;20544;-67